sensor_id;sensor_type;location;lat;lon;timestamp;temperature;humidity
32753;DHT22;19121;52.428;10.816;2023-09-18T00:02:20;23.30;55.70
32753;DHT22;19121;52.428;10.816;2023-09-18T00:04:45;23.30;55.70
32753;DHT22;19121;52.428;10.816;2023-09-18T00:07:10;23.30;55.70
32753;DHT22;19121;52.428;10.816;2023-09-18T00:09:36;23.30;55.70
32753;DHT22;19121;52.428;10.816;2023-09-18T00:12:01;23.30;55.70
32753;DHT22;19121;52.428;10.816;2023-09-18T00:14:27;23.30;55.70
32753;DHT22;19121;52.428;10.816;2023-09-18T00:16:52;23.30;55.70
32753;DHT22;19121;52.428;10.816;2023-09-18T00:19:18;23.30;55.80
32753;DHT22;19121;52.428;10.816;2023-09-18T00:21:43;23.30;55.70
32753;DHT22;19121;52.428;10.816;2023-09-18T00:24:08;23.30;55.70
32753;DHT22;19121;52.428;10.816;2023-09-18T00:26:34;23.30;55.80
32753;DHT22;19121;52.428;10.816;2023-09-18T00:28:59;23.30;55.80
32753;DHT22;19121;52.428;10.816;2023-09-18T00:31:25;23.30;55.80
32753;DHT22;19121;52.428;10.816;2023-09-18T00:33:50;23.30;55.80
32753;DHT22;19121;52.428;10.816;2023-09-18T00:36:16;23.20;55.70
32753;DHT22;19121;52.428;10.816;2023-09-18T00:38:41;23.30;55.80
32753;DHT22;19121;52.428;10.816;2023-09-18T00:41:06;23.30;55.70
32753;DHT22;19121;52.428;10.816;2023-09-18T00:43:32;23.30;55.80
32753;DHT22;19121;52.428;10.816;2023-09-18T00:45:57;23.30;55.80
32753;DHT22;19121;52.428;10.816;2023-09-18T00:48:23;23.30;55.80
32753;DHT22;19121;52.428;10.816;2023-09-18T00:50:48;23.30;55.80
32753;DHT22;19121;52.428;10.816;2023-09-18T00:53:16;23.20;55.80
32753;DHT22;19121;52.428;10.816;2023-09-18T00:55:43;23.30;55.80
32753;DHT22;19121;52.428;10.816;2023-09-18T00:58:08;23.20;55.80
32753;DHT22;19121;52.428;10.816;2023-09-18T01:00:34;23.20;55.80
32753;DHT22;19121;52.428;10.816;2023-09-18T01:03:01;23.20;55.80
32753;DHT22;19121;52.428;10.816;2023-09-18T01:05:27;23.20;55.80
32753;DHT22;19121;52.428;10.816;2023-09-18T01:07:52;23.20;55.80
32753;DHT22;19121;52.428;10.816;2023-09-18T01:10:18;23.20;55.80
32753;DHT22;19121;52.428;10.816;2023-09-18T01:12:45;23.20;55.80
32753;DHT22;19121;52.428;10.816;2023-09-18T01:15:12;23.20;55.80
32753;DHT22;19121;52.428;10.816;2023-09-18T01:17:39;23.20;55.80
32753;DHT22;19121;52.428;10.816;2023-09-18T01:20:08;23.20;55.80
32753;DHT22;19121;52.428;10.816;2023-09-18T01:22:34;23.20;55.80
32753;DHT22;19121;52.428;10.816;2023-09-18T01:24:59;23.20;55.80
32753;DHT22;19121;52.428;10.816;2023-09-18T01:27:24;23.20;55.80
32753;DHT22;19121;52.428;10.816;2023-09-18T01:29:50;23.20;55.80
32753;DHT22;19121;52.428;10.816;2023-09-18T01:32:16;23.20;55.90
32753;DHT22;19121;52.428;10.816;2023-09-18T01:34:45;23.20;55.80
32753;DHT22;19121;52.428;10.816;2023-09-18T01:37:11;23.20;55.90
32753;DHT22;19121;52.428;10.816;2023-09-18T01:39:37;23.20;55.90
32753;DHT22;19121;52.428;10.816;2023-09-18T01:42:04;23.20;55.90
32753;DHT22;19121;52.428;10.816;2023-09-18T01:44:35;23.20;55.90
32753;DHT22;19121;52.428;10.816;2023-09-18T01:47:04;23.20;55.90
32753;DHT22;19121;52.428;10.816;2023-09-18T01:49:35;23.10;55.80
32753;DHT22;19121;52.428;10.816;2023-09-18T01:52:01;23.20;55.90
32753;DHT22;19121;52.428;10.816;2023-09-18T01:54:26;23.10;55.80
32753;DHT22;19121;52.428;10.816;2023-09-18T01:56:52;23.10;55.80
32753;DHT22;19121;52.428;10.816;2023-09-18T01:59:18;23.10;55.80
32753;DHT22;19121;52.428;10.816;2023-09-18T02:01:44;23.20;55.90
32753;DHT22;19121;52.428;10.816;2023-09-18T02:04:09;23.10;55.80
32753;DHT22;19121;52.428;10.816;2023-09-18T02:06:35;23.10;55.80
32753;DHT22;19121;52.428;10.816;2023-09-18T02:09:01;23.10;55.80
32753;DHT22;19121;52.428;10.816;2023-09-18T02:11:27;23.10;55.80
32753;DHT22;19121;52.428;10.816;2023-09-18T02:13:52;23.10;55.80
32753;DHT22;19121;52.428;10.816;2023-09-18T02:16:20;23.10;55.90
32753;DHT22;19121;52.428;10.816;2023-09-18T02:18:49;23.10;55.90
32753;DHT22;19121;52.428;10.816;2023-09-18T02:21:21;23.10;55.80
32753;DHT22;19121;52.428;10.816;2023-09-18T02:23:50;23.10;55.90
32753;DHT22;19121;52.428;10.816;2023-09-18T02:26:16;23.10;55.90
32753;DHT22;19121;52.428;10.816;2023-09-18T02:28:42;23.10;55.80
32753;DHT22;19121;52.428;10.816;2023-09-18T02:31:07;23.10;55.90
32753;DHT22;19121;52.428;10.816;2023-09-18T02:33:33;23.10;55.90
32753;DHT22;19121;52.428;10.816;2023-09-18T02:35:59;23.10;55.80
32753;DHT22;19121;52.428;10.816;2023-09-18T02:38:24;23.10;55.90
32753;DHT22;19121;52.428;10.816;2023-09-18T02:40:50;23.10;55.90
32753;DHT22;19121;52.428;10.816;2023-09-18T02:43:15;23.10;55.90
32753;DHT22;19121;52.428;10.816;2023-09-18T02:45:41;23.10;55.90
32753;DHT22;19121;52.428;10.816;2023-09-18T02:48:06;23.10;56.00
32753;DHT22;19121;52.428;10.816;2023-09-18T02:50:31;23.00;55.90
32753;DHT22;19121;52.428;10.816;2023-09-18T02:52:57;23.10;55.90
32753;DHT22;19121;52.428;10.816;2023-09-18T02:55:22;23.10;55.90
32753;DHT22;19121;52.428;10.816;2023-09-18T02:57:48;23.00;55.80
32753;DHT22;19121;52.428;10.816;2023-09-18T03:00:13;23.00;55.90
32753;DHT22;19121;52.428;10.816;2023-09-18T03:02:38;23.00;55.90
32753;DHT22;19121;52.428;10.816;2023-09-18T03:05:04;23.00;55.90
32753;DHT22;19121;52.428;10.816;2023-09-18T03:07:29;23.00;55.90
32753;DHT22;19121;52.428;10.816;2023-09-18T03:09:55;23.00;55.90
32753;DHT22;19121;52.428;10.816;2023-09-18T03:12:21;23.00;55.80
32753;DHT22;19121;52.428;10.816;2023-09-18T03:14:47;23.00;55.90
32753;DHT22;19121;52.428;10.816;2023-09-18T03:17:13;23.00;55.80
32753;DHT22;19121;52.428;10.816;2023-09-18T03:19:38;23.00;55.80
32753;DHT22;19121;52.428;10.816;2023-09-18T03:22:04;23.00;55.80
32753;DHT22;19121;52.428;10.816;2023-09-18T03:24:29;23.00;55.80
32753;DHT22;19121;52.428;10.816;2023-09-18T03:26:55;23.00;55.80
32753;DHT22;19121;52.428;10.816;2023-09-18T03:29:20;23.00;55.80
32753;DHT22;19121;52.428;10.816;2023-09-18T03:31:46;23.10;55.90
32753;DHT22;19121;52.428;10.816;2023-09-18T03:34:11;23.00;55.80
32753;DHT22;19121;52.428;10.816;2023-09-18T03:36:36;23.00;55.80
32753;DHT22;19121;52.428;10.816;2023-09-18T03:39:04;23.00;55.80
32753;DHT22;19121;52.428;10.816;2023-09-18T03:41:30;23.00;55.80
32753;DHT22;19121;52.428;10.816;2023-09-18T03:44:02;23.00;55.80
32753;DHT22;19121;52.428;10.816;2023-09-18T03:46:27;23.00;55.80
32753;DHT22;19121;52.428;10.816;2023-09-18T03:48:53;23.00;55.80
32753;DHT22;19121;52.428;10.816;2023-09-18T03:51:18;23.00;55.80
32753;DHT22;19121;52.428;10.816;2023-09-18T03:53:44;23.00;55.80
32753;DHT22;19121;52.428;10.816;2023-09-18T03:56:10;23.00;55.80
32753;DHT22;19121;52.428;10.816;2023-09-18T03:58:35;23.00;55.80
32753;DHT22;19121;52.428;10.816;2023-09-18T04:01:00;23.00;55.80
32753;DHT22;19121;52.428;10.816;2023-09-18T04:03:26;22.90;55.70
32753;DHT22;19121;52.428;10.816;2023-09-18T04:05:51;23.00;55.80
32753;DHT22;19121;52.428;10.816;2023-09-18T04:08:17;22.90;55.80
32753;DHT22;19121;52.428;10.816;2023-09-18T04:10:42;22.90;55.70
32753;DHT22;19121;52.428;10.816;2023-09-18T04:13:10;22.90;55.80
32753;DHT22;19121;52.428;10.816;2023-09-18T04:15:35;22.90;55.80
32753;DHT22;19121;52.428;10.816;2023-09-18T04:18:06;22.90;55.80
32753;DHT22;19121;52.428;10.816;2023-09-18T04:20:31;22.90;55.80
32753;DHT22;19121;52.428;10.816;2023-09-18T04:25:41;22.90;55.80
32753;DHT22;19121;52.428;10.816;2023-09-18T04:28:06;22.90;55.80
32753;DHT22;19121;52.428;10.816;2023-09-18T04:30:32;22.90;55.80
32753;DHT22;19121;52.428;10.816;2023-09-18T04:32:58;22.90;55.70
32753;DHT22;19121;52.428;10.816;2023-09-18T04:35:24;22.90;55.80
32753;DHT22;19121;52.428;10.816;2023-09-18T04:37:50;22.90;55.80
32753;DHT22;19121;52.428;10.816;2023-09-18T04:40:20;22.90;55.70
32753;DHT22;19121;52.428;10.816;2023-09-18T04:42:45;22.90;55.80
32753;DHT22;19121;52.428;10.816;2023-09-18T04:45:11;22.90;55.80
32753;DHT22;19121;52.428;10.816;2023-09-18T04:47:36;22.90;55.80
32753;DHT22;19121;52.428;10.816;2023-09-18T04:50:02;22.90;55.80
32753;DHT22;19121;52.428;10.816;2023-09-18T04:52:30;22.90;55.80
32753;DHT22;19121;52.428;10.816;2023-09-18T04:54:56;22.90;55.80
32753;DHT22;19121;52.428;10.816;2023-09-18T04:57:22;22.90;55.80
32753;DHT22;19121;52.428;10.816;2023-09-18T04:59:48;22.90;55.80
32753;DHT22;19121;52.428;10.816;2023-09-18T05:02:13;22.90;55.80
32753;DHT22;19121;52.428;10.816;2023-09-18T05:04:38;22.90;55.80
32753;DHT22;19121;52.428;10.816;2023-09-18T05:07:04;22.90;55.80
32753;DHT22;19121;52.428;10.816;2023-09-18T05:09:29;22.90;55.80
32753;DHT22;19121;52.428;10.816;2023-09-18T05:11:56;22.90;55.80
32753;DHT22;19121;52.428;10.816;2023-09-18T05:14:23;22.90;55.80
32753;DHT22;19121;52.428;10.816;2023-09-18T05:16:48;22.90;55.80
32753;DHT22;19121;52.428;10.816;2023-09-18T05:19:14;22.80;55.80
32753;DHT22;19121;52.428;10.816;2023-09-18T05:21:39;22.90;55.80
32753;DHT22;19121;52.428;10.816;2023-09-18T05:24:05;22.80;55.80
32753;DHT22;19121;52.428;10.816;2023-09-18T05:26:30;22.80;55.80
32753;DHT22;19121;52.428;10.816;2023-09-18T05:28:56;22.80;55.80
32753;DHT22;19121;52.428;10.816;2023-09-18T05:31:22;22.80;55.80
32753;DHT22;19121;52.428;10.816;2023-09-18T05:33:48;22.80;55.80
32753;DHT22;19121;52.428;10.816;2023-09-18T05:36:13;22.90;55.90
32753;DHT22;19121;52.428;10.816;2023-09-18T05:38:40;22.80;55.90
32753;DHT22;19121;52.428;10.816;2023-09-18T05:41:05;22.80;55.80
32753;DHT22;19121;52.428;10.816;2023-09-18T05:43:30;22.80;55.80
32753;DHT22;19121;52.428;10.816;2023-09-18T05:45:56;22.80;55.90
32753;DHT22;19121;52.428;10.816;2023-09-18T05:48:21;22.80;55.90
32753;DHT22;19121;52.428;10.816;2023-09-18T05:50:47;22.80;55.90
32753;DHT22;19121;52.428;10.816;2023-09-18T05:53:13;22.80;56.10
32753;DHT22;19121;52.428;10.816;2023-09-18T05:55:38;22.80;56.60
32753;DHT22;19121;52.428;10.816;2023-09-18T05:58:04;22.80;56.70
32753;DHT22;19121;52.428;10.816;2023-09-18T06:00:30;22.80;57.40
32753;DHT22;19121;52.428;10.816;2023-09-18T06:02:58;22.80;57.60
32753;DHT22;19121;52.428;10.816;2023-09-18T06:05:24;22.80;57.50
32753;DHT22;19121;52.428;10.816;2023-09-18T06:07:50;22.80;57.60
32753;DHT22;19121;52.428;10.816;2023-09-18T06:10:15;22.90;57.90
32753;DHT22;19121;52.428;10.816;2023-09-18T06:12:43;22.90;58.10
32753;DHT22;19121;52.428;10.816;2023-09-18T06:15:09;22.90;58.20
32753;DHT22;19121;52.428;10.816;2023-09-18T06:17:43;22.90;58.10
32753;DHT22;19121;52.428;10.816;2023-09-18T06:20:09;22.90;58.30
32753;DHT22;19121;52.428;10.816;2023-09-18T06:22:38;22.90;58.20
32753;DHT22;19121;52.428;10.816;2023-09-18T06:25:04;22.90;58.10
32753;DHT22;19121;52.428;10.816;2023-09-18T06:27:30;23.00;58.40
32753;DHT22;19121;52.428;10.816;2023-09-18T06:29:57;23.00;58.50
32753;DHT22;19121;52.428;10.816;2023-09-18T06:32:22;23.00;58.30
32753;DHT22;19121;52.428;10.816;2023-09-18T06:34:48;23.00;58.20
32753;DHT22;19121;52.428;10.816;2023-09-18T06:37:13;23.00;58.30
32753;DHT22;19121;52.428;10.816;2023-09-18T06:39:39;23.00;58.30
32753;DHT22;19121;52.428;10.816;2023-09-18T06:42:04;23.10;58.40
32753;DHT22;19121;52.428;10.816;2023-09-18T06:44:30;23.10;59.10
32753;DHT22;19121;52.428;10.816;2023-09-18T06:46:55;23.10;59.70
32753;DHT22;19121;52.428;10.816;2023-09-18T06:49:21;23.00;60.50
32753;DHT22;19121;52.428;10.816;2023-09-18T06:51:46;23.00;60.90
32753;DHT22;19121;52.428;10.816;2023-09-18T06:54:12;23.00;61.10
32753;DHT22;19121;52.428;10.816;2023-09-18T06:56:37;23.00;61.10
32753;DHT22;19121;52.428;10.816;2023-09-18T06:59:03;23.00;61.30
32753;DHT22;19121;52.428;10.816;2023-09-18T07:01:28;23.00;61.90
32753;DHT22;19121;52.428;10.816;2023-09-18T07:03:55;23.00;61.90
32753;DHT22;19121;52.428;10.816;2023-09-18T07:06:21;23.00;62.30
32753;DHT22;19121;52.428;10.816;2023-09-18T07:08:47;23.00;62.10
32753;DHT22;19121;52.428;10.816;2023-09-18T07:11:14;23.00;61.80
32753;DHT22;19121;52.428;10.816;2023-09-18T07:13:40;23.10;61.80
32753;DHT22;19121;52.428;10.816;2023-09-18T07:16:05;23.10;61.60
32753;DHT22;19121;52.428;10.816;2023-09-18T07:18:31;23.10;61.50
32753;DHT22;19121;52.428;10.816;2023-09-18T07:20:56;23.10;61.30
32753;DHT22;19121;52.428;10.816;2023-09-18T07:23:22;23.10;61.20
32753;DHT22;19121;52.428;10.816;2023-09-18T07:25:47;23.10;61.00
32753;DHT22;19121;52.428;10.816;2023-09-18T07:28:13;23.20;61.00
32753;DHT22;19121;52.428;10.816;2023-09-18T07:30:46;23.20;60.50
32753;DHT22;19121;52.428;10.816;2023-09-18T07:33:12;23.20;60.20
32753;DHT22;19121;52.428;10.816;2023-09-18T07:35:37;23.20;60.50
32753;DHT22;19121;52.428;10.816;2023-09-18T07:38:03;23.20;60.20
32753;DHT22;19121;52.428;10.816;2023-09-18T07:40:29;23.20;59.80
32753;DHT22;19121;52.428;10.816;2023-09-18T07:42:54;23.30;60.10
32753;DHT22;19121;52.428;10.816;2023-09-18T07:45:20;23.20;59.70
32753;DHT22;19121;52.428;10.816;2023-09-18T07:47:45;23.30;59.80
32753;DHT22;19121;52.428;10.816;2023-09-18T07:50:11;23.20;60.10
32753;DHT22;19121;52.428;10.816;2023-09-18T07:52:36;23.20;60.20
32753;DHT22;19121;52.428;10.816;2023-09-18T07:55:02;23.20;60.90
32753;DHT22;19121;52.428;10.816;2023-09-18T07:57:27;23.20;61.10
32753;DHT22;19121;52.428;10.816;2023-09-18T07:59:59;23.20;62.00
32753;DHT22;19121;52.428;10.816;2023-09-18T08:02:27;23.20;61.50
32753;DHT22;19121;52.428;10.816;2023-09-18T08:04:54;23.20;61.60
32753;DHT22;19121;52.428;10.816;2023-09-18T08:07:19;23.20;62.20
32753;DHT22;19121;52.428;10.816;2023-09-18T08:09:45;23.20;62.10
32753;DHT22;19121;52.428;10.816;2023-09-18T08:12:14;23.20;61.70
32753;DHT22;19121;52.428;10.816;2023-09-18T08:14:39;23.20;62.10
32753;DHT22;19121;52.428;10.816;2023-09-18T08:17:05;23.20;62.00
32753;DHT22;19121;52.428;10.816;2023-09-18T08:19:30;23.20;61.40
32753;DHT22;19121;52.428;10.816;2023-09-18T08:21:59;23.20;60.90
32753;DHT22;19121;52.428;10.816;2023-09-18T08:24:29;23.20;60.60
32753;DHT22;19121;52.428;10.816;2023-09-18T08:26:54;23.20;60.70
32753;DHT22;19121;52.428;10.816;2023-09-18T08:29:21;23.20;61.00
32753;DHT22;19121;52.428;10.816;2023-09-18T08:31:47;23.30;61.00
32753;DHT22;19121;52.428;10.816;2023-09-18T08:34:13;23.20;60.60
32753;DHT22;19121;52.428;10.816;2023-09-18T08:36:38;23.20;60.60
32753;DHT22;19121;52.428;10.816;2023-09-18T08:39:04;23.30;61.00
32753;DHT22;19121;52.428;10.816;2023-09-18T08:41:32;23.30;61.70
32753;DHT22;19121;52.428;10.816;2023-09-18T08:44:02;23.30;61.50
32753;DHT22;19121;52.428;10.816;2023-09-18T08:46:29;23.30;61.50
32753;DHT22;19121;52.428;10.816;2023-09-18T08:48:54;23.30;61.60
32753;DHT22;19121;52.428;10.816;2023-09-18T08:51:20;23.30;61.80
32753;DHT22;19121;52.428;10.816;2023-09-18T08:53:46;23.30;61.20
32753;DHT22;19121;52.428;10.816;2023-09-18T08:56:12;23.30;61.10
32753;DHT22;19121;52.428;10.816;2023-09-18T08:58:37;23.30;60.80
32753;DHT22;19121;52.428;10.816;2023-09-18T09:01:05;23.30;61.10
32753;DHT22;19121;52.428;10.816;2023-09-18T09:03:44;23.30;61.60
32753;DHT22;19121;52.428;10.816;2023-09-18T09:06:11;23.40;62.20
32753;DHT22;19121;52.428;10.816;2023-09-18T09:08:36;23.40;61.90
32753;DHT22;19121;52.428;10.816;2023-09-18T09:11:02;23.50;62.00
32753;DHT22;19121;52.428;10.816;2023-09-18T09:13:28;23.40;62.00
32753;DHT22;19121;52.428;10.816;2023-09-18T09:15:54;23.40;62.10
32753;DHT22;19121;52.428;10.816;2023-09-18T09:18:23;23.40;62.10
32753;DHT22;19121;52.428;10.816;2023-09-18T09:20:59;23.40;62.30
32753;DHT22;19121;52.428;10.816;2023-09-18T09:23:28;23.40;62.10
32753;DHT22;19121;52.428;10.816;2023-09-18T09:25:56;23.40;61.60
32753;DHT22;19121;52.428;10.816;2023-09-18T09:28:36;23.40;62.00
32753;DHT22;19121;52.428;10.816;2023-09-18T09:31:02;23.40;61.30
32753;DHT22;19121;52.428;10.816;2023-09-18T09:33:28;23.50;61.80
32753;DHT22;19121;52.428;10.816;2023-09-18T09:35:55;23.50;62.20
32753;DHT22;19121;52.428;10.816;2023-09-18T09:38:22;23.50;62.60
32753;DHT22;19121;52.428;10.816;2023-09-18T09:40:52;23.50;62.70
32753;DHT22;19121;52.428;10.816;2023-09-18T09:43:18;23.50;62.70
32753;DHT22;19121;52.428;10.816;2023-09-18T09:45:44;23.50;62.00
32753;DHT22;19121;52.428;10.816;2023-09-18T09:48:11;23.60;61.10
32753;DHT22;19121;52.428;10.816;2023-09-18T09:50:46;23.60;60.60
32753;DHT22;19121;52.428;10.816;2023-09-18T09:53:16;23.60;60.50
32753;DHT22;19121;52.428;10.816;2023-09-18T09:55:41;23.60;60.20
32753;DHT22;19121;52.428;10.816;2023-09-18T09:58:07;23.70;60.20
32753;DHT22;19121;52.428;10.816;2023-09-18T10:00:34;23.70;60.10
32753;DHT22;19121;52.428;10.816;2023-09-18T10:03:09;23.70;59.90
32753;DHT22;19121;52.428;10.816;2023-09-18T10:05:36;23.80;59.90
32753;DHT22;19121;52.428;10.816;2023-09-18T10:08:05;23.80;59.90
32753;DHT22;19121;52.428;10.816;2023-09-18T10:10:32;23.80;59.90
32753;DHT22;19121;52.428;10.816;2023-09-18T10:13:00;23.80;59.90
32753;DHT22;19121;52.428;10.816;2023-09-18T10:15:26;23.80;60.60
32753;DHT22;19121;52.428;10.816;2023-09-18T10:17:52;23.90;59.90
32753;DHT22;19121;52.428;10.816;2023-09-18T10:20:21;23.90;59.80
32753;DHT22;19121;52.428;10.816;2023-09-18T10:22:48;23.90;59.80
32753;DHT22;19121;52.428;10.816;2023-09-18T10:25:16;24.00;59.80
32753;DHT22;19121;52.428;10.816;2023-09-18T10:27:51;24.00;59.80
32753;DHT22;19121;52.428;10.816;2023-09-18T10:30:18;24.00;59.80
32753;DHT22;19121;52.428;10.816;2023-09-18T10:32:45;24.00;59.80
32753;DHT22;19121;52.428;10.816;2023-09-18T10:35:11;24.00;59.80
32753;DHT22;19121;52.428;10.816;2023-09-18T10:37:37;24.00;59.70
32753;DHT22;19121;52.428;10.816;2023-09-18T10:40:03;24.00;59.70
32753;DHT22;19121;52.428;10.816;2023-09-18T10:42:31;24.00;59.60
32753;DHT22;19121;52.428;10.816;2023-09-18T10:44:58;24.00;59.60
32753;DHT22;19121;52.428;10.816;2023-09-18T10:47:24;24.00;59.60
32753;DHT22;19121;52.428;10.816;2023-09-18T10:49:50;24.00;59.60
32753;DHT22;19121;52.428;10.816;2023-09-18T10:52:16;24.10;59.60
32753;DHT22;19121;52.428;10.816;2023-09-18T10:54:41;24.10;59.60
32753;DHT22;19121;52.428;10.816;2023-09-18T10:57:06;24.00;59.50
32753;DHT22;19121;52.428;10.816;2023-09-18T10:59:32;24.10;59.60
32753;DHT22;19121;52.428;10.816;2023-09-18T11:02:02;24.10;59.50
32753;DHT22;19121;52.428;10.816;2023-09-18T11:04:29;24.10;59.40
32753;DHT22;19121;52.428;10.816;2023-09-18T11:09:32;24.10;59.40
32753;DHT22;19121;52.428;10.816;2023-09-18T11:12:05;24.10;60.00
32753;DHT22;19121;52.428;10.816;2023-09-18T11:14:43;24.10;59.40
32753;DHT22;19121;52.428;10.816;2023-09-18T11:20:05;24.10;59.40
32753;DHT22;19121;52.428;10.816;2023-09-18T11:22:35;24.10;59.40
32753;DHT22;19121;52.428;10.816;2023-09-18T11:27:54;24.10;59.50
32753;DHT22;19121;52.428;10.816;2023-09-18T11:30:23;24.10;59.60
32753;DHT22;19121;52.428;10.816;2023-09-18T11:32:49;24.10;59.50
32753;DHT22;19121;52.428;10.816;2023-09-18T11:35:15;24.20;59.50
32753;DHT22;19121;52.428;10.816;2023-09-18T11:37:42;24.20;59.50
32753;DHT22;19121;52.428;10.816;2023-09-18T11:40:29;24.20;59.50
32753;DHT22;19121;52.428;10.816;2023-09-18T11:45:41;24.30;59.50
32753;DHT22;19121;52.428;10.816;2023-09-18T11:48:07;24.30;59.50
32753;DHT22;19121;52.428;10.816;2023-09-18T11:50:35;24.30;59.50
32753;DHT22;19121;52.428;10.816;2023-09-18T11:53:02;24.30;59.50
32753;DHT22;19121;52.428;10.816;2023-09-18T11:55:27;24.30;59.50
32753;DHT22;19121;52.428;10.816;2023-09-18T11:57:53;24.30;59.40
32753;DHT22;19121;52.428;10.816;2023-09-18T12:00:23;24.30;59.40
32753;DHT22;19121;52.428;10.816;2023-09-18T12:02:52;24.40;59.40
32753;DHT22;19121;52.428;10.816;2023-09-18T12:05:18;24.40;59.40
32753;DHT22;19121;52.428;10.816;2023-09-18T12:07:44;24.40;59.40
32753;DHT22;19121;52.428;10.816;2023-09-18T12:10:11;24.40;59.40
32753;DHT22;19121;52.428;10.816;2023-09-18T12:12:36;24.40;59.30
32753;DHT22;19121;52.428;10.816;2023-09-18T12:15:02;24.50;59.40
32753;DHT22;19121;52.428;10.816;2023-09-18T12:17:28;24.40;59.30
32753;DHT22;19121;52.428;10.816;2023-09-18T12:19:54;24.40;59.20
32753;DHT22;19121;52.428;10.816;2023-09-18T12:22:26;24.50;59.30
32753;DHT22;19121;52.428;10.816;2023-09-18T12:24:52;24.40;59.30
32753;DHT22;19121;52.428;10.816;2023-09-18T12:27:18;24.50;59.40
32753;DHT22;19121;52.428;10.816;2023-09-18T12:29:43;24.50;59.30
32753;DHT22;19121;52.428;10.816;2023-09-18T12:32:09;24.50;59.40
32753;DHT22;19121;52.428;10.816;2023-09-18T12:34:40;24.50;59.30
32753;DHT22;19121;52.428;10.816;2023-09-18T12:37:06;24.50;59.30
32753;DHT22;19121;52.428;10.816;2023-09-18T12:39:32;24.50;59.20
32753;DHT22;19121;52.428;10.816;2023-09-18T12:41:58;24.50;59.20
32753;DHT22;19121;52.428;10.816;2023-09-18T12:44:23;24.50;59.20
32753;DHT22;19121;52.428;10.816;2023-09-18T12:46:49;24.50;59.20
32753;DHT22;19121;52.428;10.816;2023-09-18T12:49:20;24.50;59.10
32753;DHT22;19121;52.428;10.816;2023-09-18T12:51:56;24.50;59.10
32753;DHT22;19121;52.428;10.816;2023-09-18T12:54:35;24.50;59.10
32753;DHT22;19121;52.428;10.816;2023-09-18T12:57:01;24.60;59.10
32753;DHT22;19121;52.428;10.816;2023-09-18T12:59:35;24.60;59.30
32753;DHT22;19121;52.428;10.816;2023-09-18T13:02:04;24.50;59.10
32753;DHT22;19121;52.428;10.816;2023-09-18T13:04:31;24.60;59.20
32753;DHT22;19121;52.428;10.816;2023-09-18T13:07:07;24.50;59.10
32753;DHT22;19121;52.428;10.816;2023-09-18T13:09:33;24.50;59.10
32753;DHT22;19121;52.428;10.816;2023-09-18T13:12:00;24.60;59.10
32753;DHT22;19121;52.428;10.816;2023-09-18T13:14:25;24.50;59.10
32753;DHT22;19121;52.428;10.816;2023-09-18T13:16:52;24.60;59.10
32753;DHT22;19121;52.428;10.816;2023-09-18T13:19:17;24.50;59.10
32753;DHT22;19121;52.428;10.816;2023-09-18T13:21:49;24.60;59.10
32753;DHT22;19121;52.428;10.816;2023-09-18T13:24:25;24.60;59.10
32753;DHT22;19121;52.428;10.816;2023-09-18T13:26:52;24.60;59.10
32753;DHT22;19121;52.428;10.816;2023-09-18T13:29:17;24.60;59.10
32753;DHT22;19121;52.428;10.816;2023-09-18T13:31:42;24.60;59.20
32753;DHT22;19121;52.428;10.816;2023-09-18T13:34:08;24.60;59.20
32753;DHT22;19121;52.428;10.816;2023-09-18T13:36:33;24.60;59.20
32753;DHT22;19121;52.428;10.816;2023-09-18T13:38:59;24.60;59.30
32753;DHT22;19121;52.428;10.816;2023-09-18T13:41:24;24.60;59.30
32753;DHT22;19121;52.428;10.816;2023-09-18T13:43:50;24.50;59.30
32753;DHT22;19121;52.428;10.816;2023-09-18T13:46:20;24.60;59.40
32753;DHT22;19121;52.428;10.816;2023-09-18T13:48:45;24.50;59.40
32753;DHT22;19121;52.428;10.816;2023-09-18T13:51:13;24.50;59.40
32753;DHT22;19121;52.428;10.816;2023-09-18T13:53:38;24.50;59.40
32753;DHT22;19121;52.428;10.816;2023-09-18T13:56:05;24.50;59.50
32753;DHT22;19121;52.428;10.816;2023-09-18T13:58:30;24.50;59.50
32753;DHT22;19121;52.428;10.816;2023-09-18T14:00:56;24.50;59.50
32753;DHT22;19121;52.428;10.816;2023-09-18T14:03:22;24.50;59.60
32753;DHT22;19121;52.428;10.816;2023-09-18T14:05:49;24.50;59.60
32753;DHT22;19121;52.428;10.816;2023-09-18T14:08:14;24.50;59.60
32753;DHT22;19121;52.428;10.816;2023-09-18T14:10:40;24.50;59.60
32753;DHT22;19121;52.428;10.816;2023-09-18T14:13:05;24.50;59.70
32753;DHT22;19121;52.428;10.816;2023-09-18T14:15:31;24.50;59.60
32753;DHT22;19121;52.428;10.816;2023-09-18T14:17:56;24.50;59.70
32753;DHT22;19121;52.428;10.816;2023-09-18T14:20:22;24.50;59.70
32753;DHT22;19121;52.428;10.816;2023-09-18T14:22:47;24.50;59.70
32753;DHT22;19121;52.428;10.816;2023-09-18T14:25:16;24.50;59.70
32753;DHT22;19121;52.428;10.816;2023-09-18T14:27:42;24.50;59.70
32753;DHT22;19121;52.428;10.816;2023-09-18T14:30:07;24.50;59.70
32753;DHT22;19121;52.428;10.816;2023-09-18T14:32:34;24.50;59.70
32753;DHT22;19121;52.428;10.816;2023-09-18T14:35:01;24.50;59.80
32753;DHT22;19121;52.428;10.816;2023-09-18T14:37:28;24.50;59.80
32753;DHT22;19121;52.428;10.816;2023-09-18T14:39:53;24.50;59.80
32753;DHT22;19121;52.428;10.816;2023-09-18T14:42:19;24.50;59.80
32753;DHT22;19121;52.428;10.816;2023-09-18T14:44:44;24.50;59.80
32753;DHT22;19121;52.428;10.816;2023-09-18T14:47:10;24.50;59.80
32753;DHT22;19121;52.428;10.816;2023-09-18T14:49:37;24.50;59.80
32753;DHT22;19121;52.428;10.816;2023-09-18T14:52:02;24.50;59.80
32753;DHT22;19121;52.428;10.816;2023-09-18T14:54:28;24.50;59.80
32753;DHT22;19121;52.428;10.816;2023-09-18T14:56:54;24.50;59.90
32753;DHT22;19121;52.428;10.816;2023-09-18T14:59:19;24.50;59.90
32753;DHT22;19121;52.428;10.816;2023-09-18T15:01:45;24.50;59.90
32753;DHT22;19121;52.428;10.816;2023-09-18T15:04:13;24.50;59.90
32753;DHT22;19121;52.428;10.816;2023-09-18T15:06:38;24.50;59.90
32753;DHT22;19121;52.428;10.816;2023-09-18T15:09:04;24.50;59.90
32753;DHT22;19121;52.428;10.816;2023-09-18T15:11:29;24.50;59.90
32753;DHT22;19121;52.428;10.816;2023-09-18T15:13:55;24.50;59.90
32753;DHT22;19121;52.428;10.816;2023-09-18T15:16:20;24.50;59.90
32753;DHT22;19121;52.428;10.816;2023-09-18T15:18:46;24.50;59.80
32753;DHT22;19121;52.428;10.816;2023-09-18T15:21:11;24.50;59.80
32753;DHT22;19121;52.428;10.816;2023-09-18T15:23:36;24.50;59.80
32753;DHT22;19121;52.428;10.816;2023-09-18T15:26:02;24.50;59.80